Time;durP1;ratioP1;P1;durP2;ratioP2;P2;SDS_P1;SDS_P2;PMS_P1;PMS_P2;Temp;Humidity;BMP_temperature;BMP_pressure;BME280_temperature;BME280_humidity;BME280_pressure;Samples;Min_cycle;Max_cycle;Signal;HPM_P1;HPM_P2
2022/01/31 00:00:59;;;;;;;9.13;5.20;;;5.70;99.90;;;;;;5079922;28;20188;-44
2022/01/31 00:03:25;;;;;;;9.30;4.40;;;5.50;99.90;;;;;;5076318;28;20483;-40
2022/01/31 00:05:51;;;;;;;10.97;4.77;;;5.80;99.90;;;;;;5086308;28;20465;-43
2022/01/31 00:08:22;;;;;;;10.60;4.60;;;5.50;99.90;;;;;;5087052;28;20419;-42
2022/01/31 00:10:49;;;;;;;11.13;5.30;;;5.50;99.90;;;;;;5086665;28;20207;-42
2022/01/31 00:13:26;;;;;;;8.37;4.20;;;5.60;99.90;;;;;;5086859;28;20501;-42
2022/01/31 00:15:57;;;;;;;10.13;4.47;;;5.80;99.90;;;;;;5081548;28;20427;-43
2022/01/31 00:18:23;;;;;;;8.00;4.33;;;5.80;99.90;;;;;;5081236;28;20426;-41
2022/01/31 00:20:49;;;;;;;8.97;4.10;;;5.50;99.90;;;;;;5086569;28;20452;-41
2022/01/31 00:23:14;;;;;;;10.33;4.47;;;5.50;99.90;;;;;;5086992;28;20672;-43
2022/01/31 00:25:40;;;;;;;9.17;4.27;;;5.60;99.90;;;;;;5086816;28;20964;-42
2022/01/31 00:28:06;;;;;;;6.97;3.90;;;5.70;99.90;;;;;;5087030;28;20246;-40
2022/01/31 00:30:31;;;;;;;8.93;4.03;;;5.70;99.90;;;;;;5086132;28;20188;-40
2022/01/31 00:32:57;;;;;;;10.23;5.00;;;5.70;99.90;;;;;;5075195;28;20272;-43
2022/01/31 00:35:25;;;;;;;9.63;4.33;;;5.50;99.90;;;;;;5086654;28;20180;-43
2022/01/31 00:37:51;;;;;;;8.90;4.30;;;5.50;99.90;;;;;;5089368;28;20189;-45
2022/01/31 00:40:17;;;;;;;8.10;4.53;;;5.40;99.90;;;;;;5089707;28;20834;-41
2022/01/31 00:42:43;;;;;;;7.13;3.60;;;5.40;99.90;;;;;;5090393;28;20422;-42
2022/01/31 00:47:45;;;;;;;9.27;4.10;;;5.40;99.90;;;;;;5081545;28;20516;-41
2022/01/31 00:50:12;;;;;;;9.07;4.20;;;5.60;99.90;;;;;;5089439;28;20425;-46
2022/01/31 00:52:40;;;;;;;13.97;4.47;;;5.40;99.90;;;;;;5090385;28;20783;-41
2022/01/31 00:55:09;;;;;;;8.03;3.70;;;5.30;99.90;;;;;;5090130;28;20818;-42
2022/01/31 00:57:35;;;;;;;8.50;5.73;;;5.30;99.90;;;;;;5090187;28;20823;-40
2022/01/31 01:00:01;;;;;;;5.80;3.53;;;5.50;99.90;;;;;;5089700;28;20670;-40
2022/01/31 01:02:27;;;;;;;8.53;4.20;;;5.20;99.90;;;;;;5078045;28;20557;-41
2022/01/31 01:04:53;;;;;;;8.63;4.50;;;5.40;99.90;;;;;;5088348;28;20679;-42
2022/01/31 01:07:22;;;;;;;7.17;4.20;;;5.30;99.90;;;;;;5089998;28;20266;-46
2022/01/31 01:09:48;;;;;;;8.40;4.87;;;5.30;99.90;;;;;;5089401;28;20454;-43
2022/01/31 01:12:18;;;;;;;11.80;4.03;;;5.30;99.90;;;;;;5089731;28;20429;-40
2022/01/31 01:14:45;;;;;;;14.93;4.30;;;5.50;99.90;;;;;;5089171;28;20406;-40
2022/01/31 01:17:10;;;;;;;8.63;3.83;;;5.50;99.90;;;;;;5080526;28;20435;-40
2022/01/31 01:19:36;;;;;;;8.13;4.43;;;5.30;99.90;;;;;;5088403;28;20762;-41
2022/01/31 01:22:03;;;;;;;13.63;4.33;;;5.30;99.90;;;;;;5089333;28;20423;-42
2022/01/31 01:24:29;;;;;;;9.80;3.40;;;5.60;99.90;;;;;;5089307;28;20527;-42
2022/01/31 01:26:55;;;;;;;12.20;4.13;;;5.30;99.90;;;;;;5089844;28;20511;-41
2022/01/31 01:29:21;;;;;;;6.27;3.43;;;5.60;99.90;;;;;;5089616;28;20184;-42
2022/01/31 01:31:48;;;;;;;10.13;5.70;;;5.60;99.90;;;;;;5082999;28;20460;-40
2022/01/31 01:34:15;;;;;;;13.67;5.10;;;5.70;99.90;;;;;;5085499;28;20180;-41
2022/01/31 01:36:43;;;;;;;7.97;3.67;;;5.50;99.90;;;;;;5089197;28;20422;-42
2022/01/31 01:39:09;;;;;;;9.50;4.10;;;5.30;99.90;;;;;;5089163;28;20479;-40
2022/01/31 01:41:35;;;;;;;9.40;4.30;;;5.20;99.90;;;;;;5088723;28;20991;-44
2022/01/31 01:44:01;;;;;;;7.70;3.97;;;5.40;99.90;;;;;;5089617;28;20635;-41
2022/01/31 01:46:26;;;;;;;10.03;3.57;;;5.30;99.90;;;;;;5085589;28;20475;-40
2022/01/31 01:48:52;;;;;;;13.53;4.37;;;5.40;99.90;;;;;;5081274;28;20418;-40
2022/01/31 01:51:18;;;;;;;7.53;3.63;;;5.50;99.90;;;;;;5088477;28;20184;-43
2022/01/31 01:53:44;;;;;;;13.23;4.60;;;5.50;99.90;;;;;;5089206;28;20187;-42
2022/01/31 01:56:10;;;;;;;7.10;3.77;;;5.60;99.90;;;;;;5088875;28;20465;-40
2022/01/31 01:58:39;;;;;;;13.43;4.43;;;5.50;99.90;;;;;;5088841;28;20189;-42
2022/01/31 02:01:06;;;;;;;14.23;3.80;;;5.70;99.90;;;;;;5088441;28;20419;-42
2022/01/31 02:03:34;;;;;;;8.07;4.23;;;5.50;99.90;;;;;;5078832;28;20446;-41
2022/01/31 02:06:00;;;;;;;8.00;4.13;;;5.70;99.90;;;;;;5087663;28;20915;-41
2022/01/31 02:08:27;;;;;;;7.67;3.70;;;5.50;99.90;;;;;;5088514;28;20426;-41
2022/01/31 02:10:53;;;;;;;8.40;4.77;;;5.80;99.90;;;;;;5088399;28;20788;-41
2022/01/31 02:13:19;;;;;;;9.77;4.60;;;5.70;99.90;;;;;;5088504;28;20411;-45
2022/01/31 02:15:49;;;;;;;9.60;4.10;;;5.70;99.90;;;;;;5086635;28;20426;-40
2022/01/31 02:18:16;;;;;;;8.73;4.30;;;5.50;99.90;;;;;;5071911;28;20945;-42
2022/01/31 02:20:42;;;;;;;10.70;3.93;;;5.50;99.90;;;;;;5087127;28;20508;-44
2022/01/31 02:23:10;;;;;;;11.00;5.17;;;5.40;99.90;;;;;;5088739;28;20477;-40
2022/01/31 02:26:04;;;;;;;10.07;4.40;;;5.70;99.90;;;;;;5088262;28;20983;-43
2022/01/31 02:28:35;;;;;;;6.60;3.47;;;5.50;99.90;;;;;;5086069;28;20437;-41
2022/01/31 02:31:02;;;;;;;10.67;4.10;;;5.40;99.90;;;;;;5087780;28;20419;-41
2022/01/31 02:33:28;;;;;;;11.70;3.97;;;5.20;99.90;;;;;;5075017;28;20418;-42
2022/01/31 02:36:03;;;;;;;9.40;3.50;;;5.50;99.90;;;;;;5081439;28;20410;-41
2022/01/31 02:38:30;;;;;;;9.00;3.97;;;5.50;99.90;;;;;;5088117;28;20765;-41
2022/01/31 02:40:56;;;;;;;11.33;4.50;;;5.20;99.90;;;;;;5087863;28;20422;-41
2022/01/31 02:43:24;;;;;;;10.67;3.73;;;5.20;99.90;;;;;;5088210;28;20410;-40
2022/01/31 02:45:50;;;;;;;7.70;3.70;;;5.00;99.90;;;;;;5087689;28;20823;-41
2022/01/31 02:48:18;;;;;;;13.07;4.80;;;5.00;99.90;;;;;;5079652;28;21038;-44
2022/01/31 02:50:44;;;;;;;11.03;4.20;;;4.80;99.90;;;;;;5085728;28;20783;-44
2022/01/31 02:53:21;;;;;;;10.80;5.00;;;4.80;99.90;;;;;;5088139;28;20418;-41
2022/01/31 02:55:47;;;;;;;11.57;4.07;;;4.90;99.90;;;;;;5087725;28;20286;-42
2022/01/31 02:58:14;;;;;;;13.53;4.30;;;4.90;99.90;;;;;;5087814;28;20422;-40
2022/01/31 03:00:40;;;;;;;17.67;4.80;;;4.70;99.90;;;;;;5086835;28;20422;-43
2022/01/31 03:03:06;;;;;;;9.80;4.37;;;4.90;99.90;;;;;;5078199;28;21002;-44
2022/01/31 03:05:32;;;;;;;10.80;4.00;;;4.60;99.90;;;;;;5086085;28;20490;-44
2022/01/31 03:07:57;;;;;;;10.10;3.90;;;4.30;99.90;;;;;;5080146;28;20439;-40
2022/01/31 03:10:23;;;;;;;8.20;4.13;;;4.30;99.90;;;;;;5081388;28;20432;-41
2022/01/31 03:12:49;;;;;;;9.47;4.37;;;4.30;99.90;;;;;;5087620;28;20278;-43
2022/01/31 03:15:15;;;;;;;11.33;4.00;;;4.00;99.90;;;;;;5086841;28;20193;-40
2022/01/31 03:17:45;;;;;;;12.83;5.53;;;4.20;99.90;;;;;;5081845;28;20261;-40
2022/01/31 03:20:11;;;;;;;7.63;4.50;;;4.20;99.90;;;;;;5082655;28;20210;-46
2022/01/31 03:22:37;;;;;;;11.23;4.60;;;4.10;99.90;;;;;;5087518;28;20422;-43
2022/01/31 03:25:03;;;;;;;9.20;4.50;;;4.00;99.90;;;;;;5086428;28;20996;-42
2022/01/31 03:27:29;;;;;;;6.60;4.17;;;4.00;99.90;;;;;;5085936;28;20177;-40
2022/01/31 03:29:54;;;;;;;10.83;4.43;;;4.10;99.90;;;;;;5087098;28;20813;-42
2022/01/31 03:32:20;;;;;;;7.20;4.57;;;4.10;99.90;;;;;;5083003;28;20185;-44
2022/01/31 03:34:46;;;;;;;5.13;3.80;;;4.20;99.90;;;;;;5081791;28;20188;-41
2022/01/31 03:37:11;;;;;;;5.40;4.10;;;4.10;99.90;;;;;;5087213;28;20627;-40
2022/01/31 03:39:37;;;;;;;5.63;3.67;;;4.00;99.90;;;;;;5086846;28;20180;-41
2022/01/31 03:42:03;;;;;;;5.90;3.70;;;4.20;99.90;;;;;;5086831;28;20180;-43
2022/01/31 03:44:30;;;;;;;6.07;4.10;;;4.00;99.90;;;;;;5087532;28;20188;-46
2022/01/31 03:46:57;;;;;;;5.13;3.70;;;4.10;99.90;;;;;;5086738;28;20511;-41
2022/01/31 03:49:22;;;;;;;9.30;3.77;;;4.10;99.90;;;;;;5082616;28;20777;-43
2022/01/31 03:51:48;;;;;;;3.93;3.53;;;3.80;99.90;;;;;;5086739;28;20426;-40
2022/01/31 03:54:14;;;;;;;4.63;3.70;;;4.00;99.90;;;;;;5085759;28;20223;-44
2022/01/31 03:56:39;;;;;;;4.97;3.17;;;4.00;99.90;;;;;;5087071;28;20223;-43
2022/01/31 03:59:05;;;;;;;5.43;3.40;;;4.00;99.90;;;;;;5087249;28;20188;-45
2022/01/31 04:01:31;;;;;;;7.03;3.43;;;4.30;99.90;;;;;;5086670;28;20193;-40
2022/01/31 04:03:57;;;;;;;3.70;3.20;;;4.10;99.90;;;;;;5077180;28;20431;-40
2022/01/31 04:06:26;;;;;;;11.53;3.93;;;4.20;99.90;;;;;;5087393;28;20211;-42
2022/01/31 04:08:52;;;;;;;5.07;3.17;;;4.00;99.90;;;;;;5073536;28;20180;-41
2022/01/31 04:11:18;;;;;;;4.90;3.00;;;4.00;99.90;;;;;;5087071;28;20476;-43
2022/01/31 04:13:44;;;;;;;5.20;3.60;;;4.30;99.90;;;;;;5089527;28;20414;-43
2022/01/31 04:16:10;;;;;;;5.83;3.60;;;4.40;99.90;;;;;;5091288;28;20418;-44
2022/01/31 04:18:36;;;;;;;4.60;2.93;;;4.40;99.90;;;;;;5078709;28;20442;-42
2022/01/31 04:21:01;;;;;;;8.30;3.40;;;4.40;99.90;;;;;;5090776;28;20180;-43
2022/01/31 04:23:29;;;;;;;4.10;2.93;;;4.60;99.90;;;;;;5090654;28;20548;-41
2022/01/31 04:26:02;;;;;;;9.10;3.50;;;4.50;99.90;;;;;;5089352;28;20216;-40
2022/01/31 04:28:38;;;;;;;5.17;3.63;;;4.40;99.90;;;;;;5090816;28;20476;-40
2022/01/31 04:33:40;;;;;;;3.67;3.37;;;4.70;99.90;;;;;;5084305;28;20869;-40
2022/01/31 04:36:06;;;;;;;6.03;4.30;;;4.50;99.90;;;;;;5090270;28;20411;-46
2022/01/31 04:38:33;;;;;;;9.00;5.00;;;4.90;99.90;;;;;;5090701;28;20423;-40
2022/01/31 04:40:59;;;;;;;6.07;4.77;;;5.00;99.90;;;;;;5089979;28;20490;-41
2022/01/31 04:43:25;;;;;;;6.93;5.10;;;5.00;99.90;;;;;;5077059;28;20825;-44
2022/01/31 04:45:51;;;;;;;10.60;7.10;;;5.10;99.90;;;;;;5090313;28;20462;-43
2022/01/31 04:48:18;;;;;;;6.03;5.33;;;4.90;99.90;;;;;;5081407;28;20512;-40
2022/01/31 04:50:45;;;;;;;6.63;5.90;;;5.00;99.90;;;;;;5082260;28;20410;-40
2022/01/31 04:53:12;;;;;;;9.50;6.73;;;4.80;99.90;;;;;;5090559;28;20414;-42
2022/01/31 04:55:38;;;;;;;8.90;6.30;;;4.90;99.90;;;;;;5088973;28;20914;-40
2022/01/31 04:58:04;;;;;;;8.10;7.27;;;5.00;99.90;;;;;;5090410;28;20509;-43
2022/01/31 05:00:30;;;;;;;10.70;8.60;;;4.90;99.90;;;;;;5089334;28;20184;-41
2022/01/31 05:02:56;;;;;;;12.90;8.90;;;4.90;99.90;;;;;;5083696;28;21004;-43
2022/01/31 05:05:21;;;;;;;9.23;8.20;;;5.30;99.90;;;;;;5083385;28;20769;-46
2022/01/31 05:07:48;;;;;;;9.50;8.50;;;5.30;99.90;;;;;;5090117;28;20788;-45
2022/01/31 05:10:14;;;;;;;13.13;8.20;;;5.10;99.90;;;;;;5089668;28;20619;-41
2022/01/31 05:12:40;;;;;;;13.03;8.93;;;5.00;99.90;;;;;;5090179;28;20414;-45
2022/01/31 05:15:06;;;;;;;16.73;10.83;;;5.50;99.90;;;;;;5088834;28;20775;-46
2022/01/31 05:17:32;;;;;;;16.90;8.33;;;5.40;99.90;;;;;;5088513;28;20419;-41
2022/01/31 05:19:58;;;;;;;15.80;8.90;;;5.40;99.90;;;;;;5075983;28;20989;-41
2022/01/31 05:22:23;;;;;;;15.20;9.03;;;5.50;99.90;;;;;;5089511;28;20644;-41
2022/01/31 05:24:49;;;;;;;13.07;8.63;;;5.50;99.90;;;;;;5088589;28;20199;-43
2022/01/31 05:27:15;;;;;;;17.30;8.67;;;5.50;99.90;;;;;;5089721;28;20256;-40
2022/01/31 05:29:41;;;;;;;11.43;8.17;;;5.50;99.90;;;;;;5089463;28;20250;-40
2022/01/31 05:32:07;;;;;;;14.13;7.80;;;5.60;99.90;;;;;;5089443;28;20176;-44
2022/01/31 05:34:33;;;;;;;10.27;7.60;;;5.70;99.90;;;;;;5076555;28;20563;-40
2022/01/31 05:36:58;;;;;;;12.47;8.27;;;5.60;99.90;;;;;;5089481;28;20426;-40
2022/01/31 05:39:25;;;;;;;11.30;6.70;;;5.50;99.90;;;;;;5089483;28;20664;-40
2022/01/31 05:41:55;;;;;;;9.00;6.90;;;5.70;99.90;;;;;;5089252;28;20180;-42
2022/01/31 05:44:23;;;;;;;12.17;6.63;;;5.60;99.90;;;;;;5081182;28;20948;-40
2022/01/31 05:46:48;;;;;;;9.70;7.20;;;5.80;99.90;;;;;;5081467;28;20458;-41
2022/01/31 05:49:14;;;;;;;11.17;6.23;;;6.00;99.90;;;;;;5075606;28;21020;-40
2022/01/31 05:51:48;;;;;;;12.67;7.37;;;5.90;99.90;;;;;;5085850;28;20202;-42
2022/01/31 05:54:13;;;;;;;12.20;6.73;;;5.80;99.90;;;;;;5088826;28;20177;-45
2022/01/31 05:56:39;;;;;;;10.20;5.50;;;6.00;99.90;;;;;;5088931;28;20430;-41
2022/01/31 05:59:05;;;;;;;12.50;5.47;;;5.90;99.90;;;;;;5088978;28;20180;-43
2022/01/31 06:01:30;;;;;;;11.10;6.23;;;5.90;99.90;;;;;;5088396;28;20695;-42
2022/01/31 06:03:56;;;;;;;10.30;6.87;;;5.90;99.90;;;;;;5082058;28;20188;-40
2022/01/31 06:06:22;;;;;;;9.07;6.90;;;5.90;99.90;;;;;;5088836;28;20769;-41
2022/01/31 06:08:47;;;;;;;14.30;6.33;;;6.00;99.90;;;;;;5088633;28;20616;-41
2022/01/31 06:11:13;;;;;;;11.10;5.00;;;5.80;99.90;;;;;;5088252;28;20283;-40
2022/01/31 06:13:39;;;;;;;8.20;5.17;;;5.80;99.90;;;;;;5087039;28;20605;-43
2022/01/31 06:16:05;;;;;;;7.53;4.80;;;5.70;99.90;;;;;;5088384;28;20192;-41
2022/01/31 06:18:30;;;;;;;6.23;5.37;;;5.60;99.90;;;;;;5083739;28;20204;-43
2022/01/31 06:20:56;;;;;;;13.30;5.60;;;5.50;99.90;;;;;;5084968;28;20281;-41
2022/01/31 06:23:22;;;;;;;9.87;5.27;;;5.50;99.90;;;;;;5088344;28;20188;-43
2022/01/31 06:25:48;;;;;;;9.43;5.70;;;5.70;99.90;;;;;;5088333;28;20638;-41
2022/01/31 06:28:14;;;;;;;8.80;5.07;;;5.80;99.90;;;;;;5088526;28;20191;-40
2022/01/31 06:30:40;;;;;;;5.80;4.90;;;5.70;99.90;;;;;;5087594;28;20414;-41
2022/01/31 06:33:05;;;;;;;9.03;5.40;;;5.70;99.90;;;;;;5086222;28;20282;-47
2022/01/31 06:35:31;;;;;;;14.53;6.23;;;5.70;99.90;;;;;;5079513;28;20196;-41
2022/01/31 06:37:57;;;;;;;11.20;5.60;;;5.80;99.90;;;;;;5083040;28;20227;-41
2022/01/31 06:40:22;;;;;;;11.70;4.27;;;5.80;99.90;;;;;;5086198;28;20188;-40
2022/01/31 06:42:48;;;;;;;11.77;5.13;;;5.90;99.90;;;;;;5083955;28;20689;-44
2022/01/31 06:45:14;;;;;;;14.13;4.70;;;5.90;99.90;;;;;;5087329;28;20208;-45
2022/01/31 06:47:40;;;;;;;9.37;4.43;;;5.70;99.90;;;;;;5087949;28;20184;-40
2022/01/31 06:50:07;;;;;;;11.50;4.60;;;6.00;99.90;;;;;;5078079;28;20172;-39
2022/01/31 06:52:37;;;;;;;6.27;3.57;;;5.80;99.90;;;;;;5088085;28;20633;-42
2022/01/31 06:55:06;;;;;;;8.00;4.23;;;5.80;99.90;;;;;;5088144;28;20425;-44
2022/01/31 06:57:35;;;;;;;11.60;4.80;;;5.90;99.90;;;;;;5087798;28;20468;-43
2022/01/31 07:00:07;;;;;;;12.57;3.90;;;5.60;99.90;;;;;;5087059;28;20741;-40
2022/01/31 07:02:33;;;;;;;17.53;3.77;;;6.00;99.90;;;;;;5087411;28;20427;-42
2022/01/31 07:05:02;;;;;;;7.07;3.30;;;6.00;99.90;;;;;;5081495;28;20509;-40
2022/01/31 07:07:29;;;;;;;9.33;3.10;;;5.90;99.90;;;;;;5081990;28;20430;-47
2022/01/31 07:09:55;;;;;;;14.83;5.13;;;5.50;99.90;;;;;;5083705;28;20407;-41
2022/01/31 07:12:24;;;;;;;10.50;3.10;;;5.60;99.90;;;;;;5078357;28;20433;-40
2022/01/31 07:14:50;;;;;;;6.67;3.43;;;5.60;99.90;;;;;;5087594;28;20419;-41
2022/01/31 07:17:15;;;;;;;4.80;3.27;;;5.40;99.90;;;;;;5080843;28;20957;-41
2022/01/31 07:19:42;;;;;;;6.50;4.30;;;5.80;99.90;;;;;;5082672;28;20192;-42
2022/01/31 07:22:11;;;;;;;3.63;3.27;;;5.40;99.90;;;;;;5083691;28;20267;-41
2022/01/31 07:27:05;;;;;;;4.33;2.33;;;5.40;99.90;;;;;;5081794;28;20558;-40
2022/01/31 07:29:31;;;;;;;3.20;2.40;;;5.20;99.90;;;;;;5082129;28;20440;-44
2022/01/31 07:31:58;;;;;;;3.00;2.70;;;5.10;99.90;;;;;;5086756;28;20781;-40
2022/01/31 07:34:24;;;;;;;5.13;2.37;;;5.30;99.90;;;;;;5078130;28;20610;-40
2022/01/31 07:36:51;;;;;;;5.70;2.60;;;5.20;99.90;;;;;;5085699;28;20445;-40
2022/01/31 07:39:17;;;;;;;3.70;2.67;;;5.20;99.90;;;;;;5086718;28;20442;-39
2022/01/31 07:41:44;;;;;;;5.63;2.60;;;5.10;99.90;;;;;;5086121;28;20422;-41
2022/01/31 07:44:10;;;;;;;9.83;3.10;;;4.90;99.90;;;;;;5086795;28;20468;-41
2022/01/31 07:46:37;;;;;;;8.10;3.33;;;5.30;99.90;;;;;;5087774;28;20975;-42
2022/01/31 07:49:04;;;;;;;5.73;2.93;;;5.10;99.90;;;;;;5087229;28;20418;-46
2022/01/31 07:51:31;;;;;;;4.50;2.90;;;5.10;99.90;;;;;;5087791;28;20422;-42
2022/01/31 07:53:56;;;;;;;4.87;3.23;;;5.30;99.90;;;;;;5091729;28;20438;-41
2022/01/31 07:56:22;;;;;;;4.63;3.67;;;5.10;99.90;;;;;;5087346;28;20495;-42
2022/01/31 07:58:48;;;;;;;5.03;3.30;;;5.00;99.90;;;;;;5092771;28;20260;-42
2022/01/31 08:01:14;;;;;;;5.33;3.60;;;5.10;99.90;;;;;;5090973;28;20483;-42
2022/01/31 08:03:40;;;;;;;3.80;3.50;;;5.20;99.90;;;;;;5091501;28;20513;-42
2022/01/31 08:06:07;;;;;;;4.37;3.63;;;5.10;99.90;;;;;;5085308;28;20540;-44
2022/01/31 08:08:34;;;;;;;4.43;3.70;;;5.10;99.90;;;;;;5091859;28;20183;-43
2022/01/31 08:11:02;;;;;;;6.47;3.20;;;5.20;99.90;;;;;;5090170;28;20445;-41
2022/01/31 08:13:28;;;;;;;6.20;4.30;;;5.10;99.90;;;;;;5090254;28;20951;-39
2022/01/31 08:18:34;;;;;;;7.10;4.60;;;5.00;99.90;;;;;;5091473;28;20504;-39
2022/01/31 08:21:03;;;;;;;5.03;4.10;;;4.90;99.90;;;;;;5080136;28;20434;-40
2022/01/31 08:23:29;;;;;;;8.90;4.57;;;5.10;99.90;;;;;;5089327;28;20448;-39
2022/01/31 08:25:55;;;;;;;7.00;4.40;;;4.90;99.90;;;;;;5090905;28;20466;-40
2022/01/31 08:28:30;;;;;;;5.40;4.50;;;5.00;99.90;;;;;;5090794;28;20432;-40
2022/01/31 08:31:02;;;;;;;4.10;3.70;;;5.10;99.90;;;;;;5090135;28;20195;-42
2022/01/31 08:36:01;;;;;;;8.67;4.20;;;5.10;99.90;;;;;;5080238;28;20426;-40
2022/01/31 08:38:27;;;;;;;5.83;4.53;;;5.00;99.90;;;;;;5090779;28;20464;-41
2022/01/31 08:40:53;;;;;;;4.30;3.50;;;5.20;99.90;;;;;;5090290;28;20450;-44
2022/01/31 08:43:20;;;;;;;5.40;4.10;;;5.30;99.90;;;;;;5091792;28;20489;-40
2022/01/31 08:45:46;;;;;;;5.90;4.57;;;5.40;99.90;;;;;;5090341;28;20843;-42
2022/01/31 08:48:11;;;;;;;5.43;4.20;;;5.20;99.90;;;;;;5090141;28;20410;-42
2022/01/31 08:50:37;;;;;;;9.03;4.20;;;5.10;99.90;;;;;;5077694;28;20437;-41
2022/01/31 08:53:03;;;;;;;5.27;3.43;;;5.20;99.90;;;;;;5090313;28;20662;-41
2022/01/31 08:55:29;;;;;;;7.23;3.70;;;5.10;99.90;;;;;;5090246;28;20193;-41
2022/01/31 08:57:57;;;;;;;7.60;4.50;;;5.10;99.90;;;;;;5089946;28;20791;-41
2022/01/31 09:00:33;;;;;;;9.83;3.80;;;5.10;99.90;;;;;;5089542;28;20281;-41
2022/01/31 09:05:39;;;;;;;7.13;4.60;;;5.10;99.90;;;;;;5079162;28;20503;-42
2022/01/31 09:08:05;;;;;;;6.73;3.83;;;5.20;99.90;;;;;;5089787;28;20418;-40
2022/01/31 09:10:30;;;;;;;5.77;3.93;;;5.20;99.90;;;;;;5089576;28;20429;-40
2022/01/31 09:12:56;;;;;;;7.13;3.93;;;5.20;99.90;;;;;;5089810;28;20513;-42
2022/01/31 09:15:22;;;;;;;5.33;3.97;;;5.10;99.90;;;;;;5089645;28;20184;-42
2022/01/31 09:17:49;;;;;;;6.17;3.67;;;5.00;99.90;;;;;;5090227;28;20425;-44
2022/01/31 09:20:17;;;;;;;6.83;3.20;;;5.20;99.90;;;;;;5080517;28;20189;-40
2022/01/31 09:22:43;;;;;;;6.00;3.10;;;5.10;99.90;;;;;;5080467;28;20509;-40
2022/01/31 09:25:11;;;;;;;4.50;4.10;;;5.10;99.90;;;;;;5089692;28;20546;-40
2022/01/31 09:27:36;;;;;;;4.27;3.70;;;5.40;99.90;;;;;;5089710;28;20431;-44
2022/01/31 09:30:07;;;;;;;9.10;4.20;;;5.10;99.90;;;;;;5088445;28;20475;-40
2022/01/31 09:32:32;;;;;;;6.40;3.83;;;5.30;99.90;;;;;;5089996;28;20442;-39
2022/01/31 09:34:58;;;;;;;3.70;3.40;;;5.20;99.90;;;;;;5082283;28;20895;-41
2022/01/31 09:37:24;;;;;;;6.97;4.10;;;5.10;99.90;;;;;;5078667;28;20223;-40
2022/01/31 09:39:51;;;;;;;5.67;3.87;;;5.40;99.90;;;;;;5088454;28;20216;-40
2022/01/31 09:42:28;;;;;;;4.13;3.10;;;5.10;99.90;;;;;;5089327;28;20735;-40
2022/01/31 09:47:34;;;;;;;8.20;3.70;;;5.30;99.90;;;;;;5089503;28;20426;-41
2022/01/31 09:50:00;;;;;;;11.23;4.17;;;5.20;99.90;;;;;;5081812;28;20438;-41
2022/01/31 09:52:25;;;;;;;4.13;3.67;;;5.30;99.90;;;;;;5082356;28;20411;-40
2022/01/31 09:54:51;;;;;;;8.13;4.00;;;5.20;99.90;;;;;;5088670;28;20196;-40
2022/01/31 09:57:18;;;;;;;8.83;3.67;;;5.40;99.90;;;;;;5088981;28;20278;-40
2022/01/31 09:59:44;;;;;;;9.90;4.30;;;5.40;99.90;;;;;;5088538;28;20180;-40
2022/01/31 10:02:11;;;;;;;8.23;4.23;;;5.50;99.90;;;;;;5089022;28;20418;-40
2022/01/31 10:04:43;;;;;;;7.50;4.50;;;5.40;99.90;;;;;;5087114;28;20411;-40
2022/01/31 10:07:09;;;;;;;8.30;4.00;;;5.30;99.90;;;;;;5086118;28;20600;-40
2022/01/31 10:09:35;;;;;;;9.60;4.90;;;5.20;99.90;;;;;;5087323;28;20980;-40
2022/01/31 10:16:26;;;;;;;11.17;4.70;;;5.30;99.90;;;;;;5088670;28;20236;-40
2022/01/31 10:18:02;;;;;;;6.50;4.27;;;5.30;99.90;;;;;;5088339;28;20430;-41
2022/01/31 10:20:32;;;;;;;8.10;4.67;;;5.10;99.90;;;;;;5081900;28;20461;-40
2022/01/31 10:23:12;;;;;;;6.00;4.27;;;5.50;99.90;;;;;;5081394;28;20426;-40
2022/01/31 10:25:39;;;;;;;6.03;4.17;;;5.50;99.90;;;;;;5088533;28;21069;-39
2022/01/31 10:28:19;;;;;;;7.13;4.00;;;5.30;99.90;;;;;;5088510;28;20784;-42
2022/01/31 10:30:47;;;;;;;6.43;4.13;;;5.30;99.90;;;;;;5076317;28;20798;-40
2022/01/31 10:33:14;;;;;;;6.63;4.10;;;5.50;99.90;;;;;;5088531;28;20415;-40
2022/01/31 10:35:41;;;;;;;8.80;3.53;;;5.30;99.90;;;;;;5083074;28;20435;-41
2022/01/31 10:38:11;;;;;;;5.97;2.57;;;5.40;99.90;;;;;;5083531;28;20956;-43
2022/01/31 10:46:11;;;;;;;4.23;1.93;;;5.60;99.90;;;;;;5088186;28;20458;-41
2022/01/31 10:54:09;;;;;;;5.23;1.97;;;5.50;99.90;;;;;;5084320;28;20470;-40
2022/01/31 10:56:46;;;;;;;8.90;2.63;;;5.70;99.90;;;;;;5075225;28;20442;-41
2022/01/31 10:59:20;;;;;;;7.30;2.43;;;5.40;99.90;;;;;;5087645;28;20426;-40
2022/01/31 11:01:49;;;;;;;6.17;1.97;;;5.60;99.90;;;;;;5087365;28;20843;-40
2022/01/31 11:04:15;;;;;;;3.63;1.73;;;5.70;99.90;;;;;;5087691;28;20433;-40
2022/01/31 11:06:43;;;;;;;6.03;1.80;;;5.70;99.90;;;;;;5077196;28;20462;-41
2022/01/31 11:09:11;;;;;;;5.00;1.73;;;5.40;99.90;;;;;;5087705;28;20426;-42
2022/01/31 11:11:42;;;;;;;8.70;2.30;;;5.80;99.90;;;;;;5087232;28;20765;-40
2022/01/31 11:14:10;;;;;;;3.90;1.53;;;5.60;99.90;;;;;;5087513;28;20426;-40
2022/01/31 11:16:37;;;;;;;6.00;1.67;;;5.60;99.90;;;;;;5087720;28;20436;-40
2022/01/31 11:19:07;;;;;;;3.90;1.60;;;5.70;99.90;;;;;;5087707;28;20426;-40
2022/01/31 11:21:38;;;;;;;5.90;1.43;;;5.60;99.90;;;;;;5076944;28;20833;-41
2022/01/31 11:24:17;;;;;;;2.30;1.40;;;5.70;99.90;;;;;;5083767;28;20948;-40
2022/01/31 11:26:47;;;;;;;4.83;2.10;;;5.60;99.90;;;;;;5082738;28;20462;-41
2022/01/31 11:29:14;;;;;;;7.37;2.23;;;5.70;99.90;;;;;;5087966;28;20434;-40
2022/01/31 11:31:39;;;;;;;6.97;2.40;;;5.90;99.90;;;;;;5085520;28;20427;-40
2022/01/31 11:34:08;;;;;;;4.97;1.53;;;5.60;99.90;;;;;;5087574;28;20788;-40
2022/01/31 11:36:36;;;;;;;4.50;2.73;;;5.80;99.90;;;;;;5076914;28;20216;-42
2022/01/31 11:39:06;;;;;;;5.17;1.93;;;5.60;99.90;;;;;;5087082;28;20955;-40
2022/01/31 11:41:33;;;;;;;5.30;2.10;;;5.50;99.90;;;;;;5086623;28;20997;-40
2022/01/31 11:44:06;;;;;;;3.93;1.80;;;5.60;99.90;;;;;;5087660;28;20484;-41
2022/01/31 11:46:37;;;;;;;4.53;1.50;;;5.80;99.90;;;;;;5087509;28;21058;-40
2022/01/31 11:49:10;;;;;;;4.53;1.90;;;5.70;99.90;;;;;;5087295;28;20816;-40
2022/01/31 11:51:49;;;;;;;6.17;1.67;;;5.80;99.90;;;;;;5078795;28;20952;-41
2022/01/31 11:54:22;;;;;;;6.47;1.60;;;5.70;99.90;;;;;;5085825;28;20442;-40
2022/01/31 11:56:52;;;;;;;5.80;2.30;;;5.60;99.90;;;;;;5087571;28;20946;-40
2022/01/31 11:59:21;;;;;;;2.03;1.27;;;5.80;99.90;;;;;;5087000;28;20445;-41
2022/01/31 12:01:50;;;;;;;5.63;1.70;;;5.70;99.90;;;;;;5086386;28;20430;-40
2022/01/31 12:04:20;;;;;;;6.97;5.50;;;5.90;99.90;;;;;;5086961;28;20456;-40
2022/01/31 12:06:46;;;;;;;7.40;1.50;;;5.70;99.90;;;;;;5075687;28;20829;-43
2022/01/31 12:09:16;;;;;;;5.40;2.80;;;5.80;99.90;;;;;;5084599;28;20415;-41
2022/01/31 12:12:08;;;;;;;5.20;2.37;;;5.60;99.90;;;;;;5086697;28;20263;-43
2022/01/31 12:14:46;;;;;;;7.13;2.33;;;5.80;99.90;;;;;;5086841;28;20426;-40
2022/01/31 12:17:50;;;;;;;6.57;2.40;;;6.10;99.90;;;;;;5087686;28;20426;-40
2022/01/31 12:23:40;;;;;;;11.20;3.10;;;6.10;99.90;;;;;;5084100;28;20517;-41
2022/01/31 12:26:27;;;;;;;6.70;2.80;;;6.00;99.90;;;;;;5086757;28;20508;-40
2022/01/31 12:29:05;;;;;;;8.93;3.97;;;6.10;99.90;;;;;;5087023;28;20468;-43
2022/01/31 12:31:38;;;;;;;10.20;3.20;;;6.00;99.90;;;;;;5086363;28;20835;-40
2022/01/31 12:34:10;;;;;;;13.30;3.67;;;6.00;99.90;;;;;;5090105;28;20930;-42
2022/01/31 12:36:36;;;;;;;10.93;3.13;;;6.10;99.90;;;;;;5089478;28;20465;-40
2022/01/31 12:39:31;;;;;;;6.10;2.97;;;5.70;99.90;;;;;;5085096;28;20449;-42
2022/01/31 12:42:03;;;;;;;10.70;3.60;;;6.10;99.90;;;;;;5089320;28;20200;-42
2022/01/31 12:44:32;;;;;;;10.63;3.10;;;5.80;99.90;;;;;;5089336;28;20460;-40
2022/01/31 12:47:16;;;;;;;9.70;3.10;;;5.80;99.90;;;;;;5090594;28;20465;-41
2022/01/31 12:49:42;;;;;;;9.00;3.43;;;5.90;99.90;;;;;;5089925;28;20765;-41
2022/01/31 12:52:10;;;;;;;11.93;3.53;;;6.10;99.90;;;;;;5081857;28;20439;-40
2022/01/31 12:54:37;;;;;;;12.60;3.80;;;6.10;99.90;;;;;;5089485;28;20848;-41
2022/01/31 12:57:10;;;;;;;7.33;2.43;;;6.10;99.90;;;;;;5090241;28;20862;-41
2022/01/31 12:59:39;;;;;;;9.17;3.87;;;6.10;99.90;;;;;;5089833;28;20435;-41
2022/01/31 13:02:13;;;;;;;10.37;3.90;;;5.90;99.90;;;;;;5090155;28;20439;-40
2022/01/31 13:04:39;;;;;;;8.53;2.67;;;6.20;99.90;;;;;;5090107;28;20818;-46
2022/01/31 13:07:08;;;;;;;6.00;2.70;;;6.00;99.90;;;;;;5078732;28;21145;-40
2022/01/31 13:09:38;;;;;;;4.60;2.17;;;6.10;99.90;;;;;;5089403;28;20195;-39
2022/01/31 13:12:11;;;;;;;3.10;1.80;;;6.10;99.90;;;;;;5090247;28;20770;-42
2022/01/31 13:14:40;;;;;;;6.03;2.23;;;6.00;99.90;;;;;;5090381;28;20414;-42
2022/01/31 13:17:26;;;;;;;4.33;2.40;;;6.20;99.90;;;;;;5089504;28;20426;-40
2022/01/31 13:19:57;;;;;;;3.27;2.13;;;6.10;99.90;;;;;;5089403;28;20430;-40
2022/01/31 13:22:46;;;;;;;4.43;2.50;;;6.10;99.90;;;;;;5078746;28;20435;-41
2022/01/31 13:25:15;;;;;;;6.17;2.70;;;6.30;99.90;;;;;;5087830;28;20414;-41
2022/01/31 13:27:43;;;;;;;5.93;2.70;;;6.10;99.90;;;;;;5089801;28;20426;-40
2022/01/31 13:30:17;;;;;;;6.33;2.10;;;6.20;99.90;;;;;;5089173;28;20430;-41
2022/01/31 13:32:43;;;;;;;3.10;2.00;;;6.00;99.90;;;;;;5089873;28;20429;-40
2022/01/31 13:35:15;;;;;;;6.33;2.53;;;6.10;99.90;;;;;;5089391;28;20701;-40